sensor_id;sensor_type;location;lat;lon;timestamp;pressure;altitude;pressure_sealevel;temperature;humidity
55187;BME280;55457;52.002;5.464;2024-03-08T00:01:47;101682.50;;;23.64;38.72
55187;BME280;55457;52.002;5.464;2024-03-08T00:04:13;101683.59;;;23.63;38.60
55187;BME280;55457;52.002;5.464;2024-03-08T00:06:40;101665.59;;;23.62;38.71
55187;BME280;55457;52.002;5.464;2024-03-08T00:09:05;101671.03;;;23.62;38.72
55187;BME280;55457;52.002;5.464;2024-03-08T00:11:33;101660.13;;;23.62;38.67
55187;BME280;55457;52.002;5.464;2024-03-08T00:13:59;101659.31;;;23.62;38.77
55187;BME280;55457;52.002;5.464;2024-03-08T00:16:24;101658.50;;;23.61;38.78
55187;BME280;55457;52.002;5.464;2024-03-08T00:18:49;101657.69;;;23.61;38.67
55187;BME280;55457;52.002;5.464;2024-03-08T00:21:15;101660.13;;;23.62;38.78
55187;BME280;55457;52.002;5.464;2024-03-08T00:23:40;101660.41;;;23.61;38.70
55187;BME280;55457;52.002;5.464;2024-03-08T00:26:06;101655.78;;;23.61;38.67
55187;BME280;55457;52.002;5.464;2024-03-08T00:28:32;101645.97;;;23.60;38.98
55187;BME280;55457;52.002;5.464;2024-03-08T00:30:57;101647.00;;;23.59;38.85
55187;BME280;55457;52.002;5.464;2024-03-08T00:33:22;101647.00;;;23.59;38.71
55187;BME280;55457;52.002;5.464;2024-03-08T00:35:47;101648.69;;;23.60;38.86
55187;BME280;55457;52.002;5.464;2024-03-08T00:38:13;101638.84;;;23.59;38.98
55187;BME280;55457;52.002;5.464;2024-03-08T00:40:38;101637.22;;;23.58;39.00
55187;BME280;55457;52.002;5.464;2024-03-08T00:43:05;101636.63;;;23.56;38.56
55187;BME280;55457;52.002;5.464;2024-03-08T00:45:31;101643.47;;;23.59;38.94
55187;BME280;55457;52.002;5.464;2024-03-08T00:47:56;101642.66;;;23.58;38.79
55187;BME280;55457;52.002;5.464;2024-03-08T00:50:21;101631.75;;;23.58;38.87
55187;BME280;55457;52.002;5.464;2024-03-08T00:52:47;101634.47;;;23.58;38.82
55187;BME280;55457;52.002;5.464;2024-03-08T00:55:12;101622.78;;;23.58;38.94
55187;BME280;55457;52.002;5.464;2024-03-08T00:57:38;101620.88;;;23.58;38.84
55187;BME280;55457;52.002;5.464;2024-03-08T01:00:05;101616.50;;;23.57;38.58
55187;BME280;55457;52.002;5.464;2024-03-08T01:02:35;101611.06;;;23.57;38.72
55187;BME280;55457;52.002;5.464;2024-03-08T01:05:01;101603.16;;;23.56;38.96
55187;BME280;55457;52.002;5.464;2024-03-08T01:07:26;101601.28;;;23.56;38.67
55187;BME280;55457;52.002;5.464;2024-03-08T01:09:51;101597.47;;;23.57;38.88
55187;BME280;55457;52.002;5.464;2024-03-08T01:12:17;101594.19;;;23.55;38.86
55187;BME280;55457;52.002;5.464;2024-03-08T01:14:42;101593.09;;;23.56;38.59
55187;BME280;55457;52.002;5.464;2024-03-08T01:17:08;101591.47;;;23.55;38.99
55187;BME280;55457;52.002;5.464;2024-03-08T01:19:35;101594.19;;;23.55;38.71
55187;BME280;55457;52.002;5.464;2024-03-08T01:22:00;101588.75;;;23.55;38.96
55187;BME280;55457;52.002;5.464;2024-03-08T01:24:25;101580.59;;;23.55;38.71
55187;BME280;55457;52.002;5.464;2024-03-08T01:26:51;101578.91;;;23.54;38.75
55187;BME280;55457;52.002;5.464;2024-03-08T01:29:16;101577.84;;;23.55;38.61
55187;BME280;55457;52.002;5.464;2024-03-08T01:31:42;101572.41;;;23.55;38.79
55187;BME280;55457;52.002;5.464;2024-03-08T01:34:07;101572.41;;;23.55;38.70
55187;BME280;55457;52.002;5.464;2024-03-08T01:36:33;101568.03;;;23.54;38.61
55187;BME280;55457;52.002;5.464;2024-03-08T01:38:58;101571.59;;;23.55;38.89
55187;BME280;55457;52.002;5.464;2024-03-08T01:41:23;101565.31;;;23.54;38.77
55187;BME280;55457;52.002;5.464;2024-03-08T01:43:48;101568.28;;;23.53;38.81
55187;BME280;55457;52.002;5.464;2024-03-08T01:46:18;101570.19;;;23.52;38.68
55187;BME280;55457;52.002;5.464;2024-03-08T01:48:44;101565.31;;;23.54;38.71
55187;BME280;55457;52.002;5.464;2024-03-08T01:51:10;101562.00;;;23.52;38.81
55187;BME280;55457;52.002;5.464;2024-03-08T01:53:37;101556.56;;;23.52;38.59
55187;BME280;55457;52.002;5.464;2024-03-08T01:56:02;101552.78;;;23.53;38.91
55187;BME280;55457;52.002;5.464;2024-03-08T01:58:29;101550.06;;;23.53;38.65
55187;BME280;55457;52.002;5.464;2024-03-08T02:00:56;101550.31;;;23.52;38.65
55187;BME280;55457;52.002;5.464;2024-03-08T02:03:21;101551.13;;;23.52;38.83
55187;BME280;55457;52.002;5.464;2024-03-08T02:05:48;101536.97;;;23.50;38.85
55187;BME280;55457;52.002;5.464;2024-03-08T02:08:13;101544.06;;;23.51;38.74
55187;BME280;55457;52.002;5.464;2024-03-08T02:10:40;101537.53;;;23.52;38.67
55187;BME280;55457;52.002;5.464;2024-03-08T02:13:09;101546.78;;;23.51;38.81
55187;BME280;55457;52.002;5.464;2024-03-08T02:15:54;101535.06;;;23.51;38.89
55187;BME280;55457;52.002;5.464;2024-03-08T02:18:23;101538.59;;;23.51;38.75
55187;BME280;55457;52.002;5.464;2024-03-08T02:21:02;101538.59;;;23.51;38.83
55187;BME280;55457;52.002;5.464;2024-03-08T02:23:29;101527.97;;;23.50;38.92
55187;BME280;55457;52.002;5.464;2024-03-08T02:25:56;101529.88;;;23.49;38.76
55187;BME280;55457;52.002;5.464;2024-03-08T02:28:22;101528.22;;;23.48;38.93
55187;BME280;55457;52.002;5.464;2024-03-08T02:30:48;101525.25;;;23.50;38.93
55187;BME280;55457;52.002;5.464;2024-03-08T02:33:15;101521.94;;;23.48;38.65
55187;BME280;55457;52.002;5.464;2024-03-08T02:35:44;101511.06;;;23.48;38.77
55187;BME280;55457;52.002;5.464;2024-03-08T02:38:11;101512.72;;;23.49;38.85
55187;BME280;55457;52.002;5.464;2024-03-08T02:40:37;101504.81;;;23.47;38.99
55187;BME280;55457;52.002;5.464;2024-03-08T02:43:02;101505.63;;;23.48;38.59
55187;BME280;55457;52.002;5.464;2024-03-08T02:45:30;101502.09;;;23.47;38.74
55187;BME280;55457;52.002;5.464;2024-03-08T02:47:55;101492.53;;;23.44;38.68
55187;BME280;55457;52.002;5.464;2024-03-08T02:50:21;101493.91;;;23.47;39.06
55187;BME280;55457;52.002;5.464;2024-03-08T02:52:47;101499.38;;;23.47;38.65
55187;BME280;55457;52.002;5.464;2024-03-08T02:55:13;101490.63;;;23.45;38.55
55187;BME280;55457;52.002;5.464;2024-03-08T02:57:41;101486.84;;;23.46;38.80
55187;BME280;55457;52.002;5.464;2024-03-08T03:00:07;101486.84;;;23.46;38.74
55187;BME280;55457;52.002;5.464;2024-03-08T03:02:36;101487.91;;;23.45;38.97
55187;BME280;55457;52.002;5.464;2024-03-08T03:05:02;101479.75;;;23.45;38.80
55187;BME280;55457;52.002;5.464;2024-03-08T03:07:34;101481.66;;;23.44;38.94
55187;BME280;55457;52.002;5.464;2024-03-08T03:09:59;101478.13;;;23.44;38.72
55187;BME280;55457;52.002;5.464;2024-03-08T03:12:28;101477.25;;;23.43;38.71
55187;BME280;55457;52.002;5.464;2024-03-08T03:14:53;101475.41;;;23.44;38.87
55187;BME280;55457;52.002;5.464;2024-03-08T03:17:18;101472.69;;;23.44;38.92
55187;BME280;55457;52.002;5.464;2024-03-08T03:19:45;101463.09;;;23.41;38.77
55187;BME280;55457;52.002;5.464;2024-03-08T03:22:11;101471.00;;;23.43;38.94
55187;BME280;55457;52.002;5.464;2024-03-08T03:24:37;101465.81;;;23.41;38.88
55187;BME280;55457;52.002;5.464;2024-03-08T03:27:04;101469.38;;;23.42;38.74
55187;BME280;55457;52.002;5.464;2024-03-08T03:29:43;101459.56;;;23.41;38.71
55187;BME280;55457;52.002;5.464;2024-03-08T03:32:14;101462.28;;;23.41;38.63
55187;BME280;55457;52.002;5.464;2024-03-08T03:34:40;101459.56;;;23.41;38.88
55187;BME280;55457;52.002;5.464;2024-03-08T03:37:07;101452.22;;;23.41;38.97
55187;BME280;55457;52.002;5.464;2024-03-08T03:39:33;101452.47;;;23.40;38.97
55187;BME280;55457;52.002;5.464;2024-03-08T03:42:00;101448.94;;;23.39;38.63
55187;BME280;55457;52.002;5.464;2024-03-08T03:44:27;101449.75;;;23.40;38.90
55187;BME280;55457;52.002;5.464;2024-03-08T03:46:53;101454.38;;;23.39;38.58
55187;BME280;55457;52.002;5.464;2024-03-08T03:49:18;101447.53;;;23.37;38.77
55187;BME280;55457;52.002;5.464;2024-03-08T03:51:43;101446.44;;;23.38;39.02
55187;BME280;55457;52.002;5.464;2024-03-08T03:54:10;101441.00;;;23.38;38.81
55187;BME280;55457;52.002;5.464;2024-03-08T03:56:35;101441.00;;;23.38;38.77
55187;BME280;55457;52.002;5.464;2024-03-08T03:59:00;101438.28;;;23.38;38.74
55187;BME280;55457;52.002;5.464;2024-03-08T04:01:26;101436.09;;;23.35;38.70
55187;BME280;55457;52.002;5.464;2024-03-08T04:03:51;101438.53;;;23.36;38.57
55187;BME280;55457;52.002;5.464;2024-03-08T04:06:16;101435.00;;;23.36;38.66
55187;BME280;55457;52.002;5.464;2024-03-08T04:08:42;101436.09;;;23.35;38.57
55187;BME280;55457;52.002;5.464;2024-03-08T04:11:07;101430.66;;;23.35;38.79
55187;BME280;55457;52.002;5.464;2024-03-08T04:13:34;101436.91;;;23.35;38.79
55187;BME280;55457;52.002;5.464;2024-03-08T04:15:59;101423.31;;;23.35;38.78
55187;BME280;55457;52.002;5.464;2024-03-08T04:18:25;101423.56;;;23.34;38.78
55187;BME280;55457;52.002;5.464;2024-03-08T04:20:50;101429.00;;;23.34;38.78
55187;BME280;55457;52.002;5.464;2024-03-08T04:23:15;101424.06;;;23.31;38.80
55187;BME280;55457;52.002;5.464;2024-03-08T04:25:43;101421.88;;;23.33;38.78
55187;BME280;55457;52.002;5.464;2024-03-08T04:28:08;101429.22;;;23.32;38.91
55187;BME280;55457;52.002;5.464;2024-03-08T04:30:37;101427.34;;;23.33;38.83
55187;BME280;55457;52.002;5.464;2024-03-08T04:33:03;101425.69;;;23.32;38.58
55187;BME280;55457;52.002;5.464;2024-03-08T04:35:28;101418.06;;;23.29;38.79
55187;BME280;55457;52.002;5.464;2024-03-08T04:37:54;101416.97;;;23.30;38.89
55187;BME280;55457;52.002;5.464;2024-03-08T04:40:19;101425.13;;;23.30;38.94
55187;BME280;55457;52.002;5.464;2024-03-08T04:42:44;101422.41;;;23.30;38.92
55187;BME280;55457;52.002;5.464;2024-03-08T04:45:10;101413.44;;;23.29;38.87
55187;BME280;55457;52.002;5.464;2024-03-08T04:47:39;101410.72;;;23.29;38.72
55187;BME280;55457;52.002;5.464;2024-03-08T04:50:05;101405.75;;;23.26;38.90
55187;BME280;55457;52.002;5.464;2024-03-08T04:52:30;101409.88;;;23.29;38.74
55187;BME280;55457;52.002;5.464;2024-03-08T04:54:55;101404.69;;;23.27;38.86
55187;BME280;55457;52.002;5.464;2024-03-08T04:57:21;101406.56;;;23.27;38.67
55187;BME280;55457;52.002;5.464;2024-03-08T04:59:46;101403.84;;;23.27;38.56
55187;BME280;55457;52.002;5.464;2024-03-08T05:02:12;101399.50;;;23.26;38.57
55187;BME280;55457;52.002;5.464;2024-03-08T05:04:37;101403.84;;;23.27;38.90
55187;BME280;55457;52.002;5.464;2024-03-08T05:07:03;101402.22;;;23.26;38.80
55187;BME280;55457;52.002;5.464;2024-03-08T05:09:29;101395.97;;;23.25;38.92
55187;BME280;55457;52.002;5.464;2024-03-08T05:11:56;101404.94;;;23.26;39.01
55187;BME280;55457;52.002;5.464;2024-03-08T05:14:24;101397.84;;;23.25;38.87
55187;BME280;55457;52.002;5.464;2024-03-08T05:16:50;101391.59;;;23.24;38.94
55187;BME280;55457;52.002;5.464;2024-03-08T05:19:19;101389.69;;;23.25;38.64
55187;BME280;55457;52.002;5.464;2024-03-08T05:21:46;101391.59;;;23.24;38.96
55187;BME280;55457;52.002;5.464;2024-03-08T05:24:11;101397.25;;;23.23;38.63
55187;BME280;55457;52.002;5.464;2024-03-08T05:26:37;101387.47;;;23.22;38.90
55187;BME280;55457;52.002;5.464;2024-03-08T05:29:05;101387.47;;;23.22;38.97
55187;BME280;55457;52.002;5.464;2024-03-08T05:31:41;101394.53;;;23.23;39.00
55187;BME280;55457;52.002;5.464;2024-03-08T05:34:08;101384.75;;;23.22;38.85
55187;BME280;55457;52.002;5.464;2024-03-08T05:36:35;101392.91;;;23.22;38.89
55187;BME280;55457;52.002;5.464;2024-03-08T05:39:00;101387.47;;;23.22;38.98
55187;BME280;55457;52.002;5.464;2024-03-08T05:41:25;101387.47;;;23.22;38.80
55187;BME280;55457;52.002;5.464;2024-03-08T05:43:51;101376.59;;;23.22;38.71
55187;BME280;55457;52.002;5.464;2024-03-08T05:46:16;101384.75;;;23.22;38.86
55187;BME280;55457;52.002;5.464;2024-03-08T05:48:43;101376.03;;;23.20;38.68
55187;BME280;55457;52.002;5.464;2024-03-08T05:51:08;101381.22;;;23.21;38.93
55187;BME280;55457;52.002;5.464;2024-03-08T05:53:34;101376.59;;;23.22;38.75
55187;BME280;55457;52.002;5.464;2024-03-08T05:55:59;101370.84;;;23.18;38.82
55187;BME280;55457;52.002;5.464;2024-03-08T05:58:27;101371.41;;;23.20;38.72
55187;BME280;55457;52.002;5.464;2024-03-08T06:00:55;101364.56;;;23.17;38.77
55187;BME280;55457;52.002;5.464;2024-03-08T06:03:20;101362.44;;;23.20;38.78
55187;BME280;55457;52.002;5.464;2024-03-08T06:05:48;101361.63;;;23.19;38.71
55187;BME280;55457;52.002;5.464;2024-03-08T06:08:13;101353.69;;;23.17;39.01
55187;BME280;55457;52.002;5.464;2024-03-08T06:10:40;101357.00;;;23.20;38.97
55187;BME280;55457;52.002;5.464;2024-03-08T06:13:05;101352.88;;;23.17;38.86
55187;BME280;55457;52.002;5.464;2024-03-08T06:15:31;101355.34;;;23.18;38.65
55187;BME280;55457;52.002;5.464;2024-03-08T06:17:57;101356.19;;;23.19;38.67
55187;BME280;55457;52.002;5.464;2024-03-08T06:20:22;101360.78;;;23.18;39.00
55187;BME280;55457;52.002;5.464;2024-03-08T06:22:51;101349.91;;;23.18;38.86
55187;BME280;55457;52.002;5.464;2024-03-08T06:25:17;101349.91;;;23.18;38.72
55187;BME280;55457;52.002;5.464;2024-03-08T06:27:42;101359.13;;;23.17;38.72
55187;BME280;55457;52.002;5.464;2024-03-08T06:30:09;101353.69;;;23.17;38.86
55187;BME280;55457;52.002;5.464;2024-03-08T06:32:35;101356.41;;;23.17;38.81
55187;BME280;55457;52.002;5.464;2024-03-08T06:35:04;101348.25;;;23.17;38.99
55187;BME280;55457;52.002;5.464;2024-03-08T06:37:33;101348.25;;;23.17;38.67
55187;BME280;55457;52.002;5.464;2024-03-08T06:39:59;101351.81;;;23.18;38.80
55187;BME280;55457;52.002;5.464;2024-03-08T06:42:26;101348.25;;;23.17;38.84
55187;BME280;55457;52.002;5.464;2024-03-08T06:44:51;101347.19;;;23.18;38.79
55187;BME280;55457;52.002;5.464;2024-03-08T06:47:16;101340.09;;;23.17;38.69
55187;BME280;55457;52.002;5.464;2024-03-08T06:49:42;101343.66;;;23.18;38.80
55187;BME280;55457;52.002;5.464;2024-03-08T06:52:09;101344.47;;;23.18;38.55
55187;BME280;55457;52.002;5.464;2024-03-08T06:54:35;101348.25;;;23.17;38.88
55187;BME280;55457;52.002;5.464;2024-03-08T06:57:04;101339.28;;;23.17;38.69
55187;BME280;55457;52.002;5.464;2024-03-08T06:59:30;101350.97;;;23.17;38.68
55187;BME280;55457;52.002;5.464;2024-03-08T07:01:55;101342.00;;;23.17;38.85
55187;BME280;55457;52.002;5.464;2024-03-08T07:04:21;101344.69;;;23.17;38.72
55187;BME280;55457;52.002;5.464;2024-03-08T07:06:47;101337.38;;;23.17;38.74
55187;BME280;55457;52.002;5.464;2024-03-08T07:09:15;101336.31;;;23.18;38.77
55187;BME280;55457;52.002;5.464;2024-03-08T07:11:42;101331.38;;;23.15;38.59
55187;BME280;55457;52.002;5.464;2024-03-08T07:14:07;101330.28;;;23.16;38.54
55187;BME280;55457;52.002;5.464;2024-03-08T07:16:34;101327.00;;;23.14;38.82
55187;BME280;55457;52.002;5.464;2024-03-08T07:19:03;101337.38;;;23.17;38.45
55187;BME280;55457;52.002;5.464;2024-03-08T07:21:30;101335.50;;;23.18;38.91
55187;BME280;55457;52.002;5.464;2024-03-08T07:23:55;101328.16;;;23.18;38.64
55187;BME280;55457;52.002;5.464;2024-03-08T07:26:26;101325.66;;;23.17;38.71
55187;BME280;55457;52.002;5.464;2024-03-08T07:28:52;101322.72;;;23.18;38.80
55187;BME280;55457;52.002;5.464;2024-03-08T07:31:20;101317.28;;;23.18;38.74
55187;BME280;55457;52.002;5.464;2024-03-08T07:33:51;101313.75;;;23.18;38.53
55187;BME280;55457;52.002;5.464;2024-03-08T07:36:18;101312.91;;;23.17;38.53
55187;BME280;55457;52.002;5.464;2024-03-08T07:38:44;101307.22;;;23.19;38.53
55187;BME280;55457;52.002;5.464;2024-03-08T07:41:12;101303.09;;;23.16;38.73
55187;BME280;55457;52.002;5.464;2024-03-08T07:43:38;101312.66;;;23.19;38.63
55187;BME280;55457;52.002;5.464;2024-03-08T07:46:03;101308.06;;;23.20;38.75
55187;BME280;55457;52.002;5.464;2024-03-08T07:48:28;101304.25;;;23.21;38.91
55187;BME280;55457;52.002;5.464;2024-03-08T07:50:55;101299.63;;;23.21;38.99
55187;BME280;55457;52.002;5.464;2024-03-08T07:53:21;101302.09;;;23.23;39.36
55187;BME280;55457;52.002;5.464;2024-03-08T07:55:46;101303.75;;;23.24;39.52
55187;BME280;55457;52.002;5.464;2024-03-08T07:58:11;101299.97;;;23.25;39.62
55187;BME280;55457;52.002;5.464;2024-03-08T08:00:38;101297.50;;;23.23;39.83
55187;BME280;55457;52.002;5.464;2024-03-08T08:03:04;101296.16;;;23.26;39.53
55187;BME280;55457;52.002;5.464;2024-03-08T08:05:32;101295.28;;;23.20;39.01
55187;BME280;55457;52.002;5.464;2024-03-08T08:08:01;101294.06;;;23.11;36.20
55187;BME280;55457;52.002;5.464;2024-03-08T08:10:28;101289.03;;;22.86;37.91
55187;BME280;55457;52.002;5.464;2024-03-08T08:12:54;101291.19;;;22.84;38.04
55187;BME280;55457;52.002;5.464;2024-03-08T08:15:19;101289.56;;;22.83;37.76
55187;BME280;55457;52.002;5.464;2024-03-08T08:17:45;101286.16;;;22.76;37.13
55187;BME280;55457;52.002;5.464;2024-03-08T08:20:11;101275.66;;;22.62;36.09
55187;BME280;55457;52.002;5.464;2024-03-08T08:22:41;101278.94;;;22.48;35.95
55187;BME280;55457;52.002;5.464;2024-03-08T08:25:08;101276.97;;;22.43;36.88
55187;BME280;55457;52.002;5.464;2024-03-08T08:27:34;101275.34;;;22.42;34.88
55187;BME280;55457;52.002;5.464;2024-03-08T08:29:59;101267.09;;;22.37;35.94
55187;BME280;55457;52.002;5.464;2024-03-08T08:32:25;101268.75;;;22.38;36.17
55187;BME280;55457;52.002;5.464;2024-03-08T08:34:51;101270.72;;;22.43;35.78
55187;BME280;55457;52.002;5.464;2024-03-08T08:37:16;101267.19;;;22.42;35.56
55187;BME280;55457;52.002;5.464;2024-03-08T08:39:42;101245.53;;;22.47;35.78
55187;BME280;55457;52.002;5.464;2024-03-08T08:42:07;101253.50;;;22.54;35.02
55187;BME280;55457;52.002;5.464;2024-03-08T08:44:35;101244.06;;;22.56;34.88
55187;BME280;55457;52.002;5.464;2024-03-08T08:47:00;101244.22;;;22.66;34.83
55187;BME280;55457;52.002;5.464;2024-03-08T08:49:26;101229.03;;;22.71;34.43
55187;BME280;55457;52.002;5.464;2024-03-08T08:51:51;101237.53;;;22.74;33.82
55187;BME280;55457;52.002;5.464;2024-03-08T08:54:16;101236.78;;;22.79;33.53
55187;BME280;55457;52.002;5.464;2024-03-08T08:56:42;101231.41;;;22.84;33.66
55187;BME280;55457;52.002;5.464;2024-03-08T08:59:09;101237.50;;;22.91;34.22
55187;BME280;55457;52.002;5.464;2024-03-08T09:01:35;101226.22;;;22.99;34.36
55187;BME280;55457;52.002;5.464;2024-03-08T09:04:00;101222.47;;;23.05;34.86
55187;BME280;55457;52.002;5.464;2024-03-08T09:06:25;101218.75;;;23.11;34.99
55187;BME280;55457;52.002;5.464;2024-03-08T09:08:51;101225.13;;;23.22;35.02
55187;BME280;55457;52.002;5.464;2024-03-08T09:11:16;101204.84;;;23.30;34.92
55187;BME280;55457;52.002;5.464;2024-03-08T09:13:44;101208.19;;;23.37;35.27
55187;BME280;55457;52.002;5.464;2024-03-08T09:16:11;101213.19;;;23.45;35.23
55187;BME280;55457;52.002;5.464;2024-03-08T09:18:36;101208.34;;;23.52;35.35
55187;BME280;55457;52.002;5.464;2024-03-08T09:21:01;101200.81;;;23.59;35.38
55187;BME280;55457;52.002;5.464;2024-03-08T09:23:28;101194.94;;;23.67;35.22
55187;BME280;55457;52.002;5.464;2024-03-08T09:25:58;101201.00;;;23.75;35.16
55187;BME280;55457;52.002;5.464;2024-03-08T09:28:23;101201.63;;;23.82;35.39
55187;BME280;55457;52.002;5.464;2024-03-08T09:30:50;101196.78;;;23.89;35.25
55187;BME280;55457;52.002;5.464;2024-03-08T09:33:15;101189.22;;;23.96;35.38
55187;BME280;55457;52.002;5.464;2024-03-08T09:35:47;101185.97;;;23.99;35.11
55187;BME280;55457;52.002;5.464;2024-03-08T09:38:13;101183.84;;;24.06;34.95
55187;BME280;55457;52.002;5.464;2024-03-08T09:40:42;101182.25;;;24.10;35.23
55187;BME280;55457;52.002;5.464;2024-03-08T09:43:09;101174.94;;;24.16;35.25
55187;BME280;55457;52.002;5.464;2024-03-08T09:45:37;101175.78;;;24.21;35.24
55187;BME280;55457;52.002;5.464;2024-03-08T09:48:10;101179.13;;;24.29;35.15
55187;BME280;55457;52.002;5.464;2024-03-08T09:50:41;101160.09;;;24.34;35.15
55187;BME280;55457;52.002;5.464;2024-03-08T09:53:08;101162.91;;;24.39;35.18
55187;BME280;55457;52.002;5.464;2024-03-08T09:55:38;101156.38;;;24.45;34.67
55187;BME280;55457;52.002;5.464;2024-03-08T09:58:08;101150.16;;;24.50;35.17
55187;BME280;55457;52.002;5.464;2024-03-08T10:00:52;101138.47;;;24.54;35.07
55187;BME280;55457;52.002;5.464;2024-03-08T10:03:19;101139.81;;;24.57;35.27
55187;BME280;55457;52.002;5.464;2024-03-08T10:05:45;101143.66;;;24.61;34.88
55187;BME280;55457;52.002;5.464;2024-03-08T10:08:10;101125.44;;;24.66;35.23
55187;BME280;55457;52.002;5.464;2024-03-08T10:10:36;101128.19;;;24.71;35.36
55187;BME280;55457;52.002;5.464;2024-03-08T10:13:06;101123.84;;;24.76;35.17
55187;BME280;55457;52.002;5.464;2024-03-08T10:15:31;101110.75;;;24.78;34.94
55187;BME280;55457;52.002;5.464;2024-03-08T10:18:00;101110.25;;;24.81;34.83
55187;BME280;55457;52.002;5.464;2024-03-08T10:20:27;101108.34;;;24.86;35.19
55187;BME280;55457;52.002;5.464;2024-03-08T10:22:59;101096.34;;;24.87;35.29
55187;BME280;55457;52.002;5.464;2024-03-08T10:25:24;101095.28;;;24.93;35.20
55187;BME280;55457;52.002;5.464;2024-03-08T10:27:50;101090.13;;;24.97;35.18
55187;BME280;55457;52.002;5.464;2024-03-08T10:30:16;101087.69;;;25.01;35.36
55187;BME280;55457;52.002;5.464;2024-03-08T10:32:45;101078.94;;;25.04;35.35
55187;BME280;55457;52.002;5.464;2024-03-08T10:35:11;101071.63;;;25.09;35.30
55187;BME280;55457;52.002;5.464;2024-03-08T10:37:57;101061.53;;;25.15;35.17
55187;BME280;55457;52.002;5.464;2024-03-08T10:40:28;101061.03;;;25.18;35.27
55187;BME280;55457;52.002;5.464;2024-03-08T10:42:55;101078.22;;;25.23;35.19
55187;BME280;55457;52.002;5.464;2024-03-08T10:50:27;101052.03;;;25.38;35.01
55187;BME280;55457;52.002;5.464;2024-03-08T10:52:55;101046.84;;;25.41;34.80
55187;BME280;55457;52.002;5.464;2024-03-08T10:55:24;101047.66;;;25.47;35.09
55187;BME280;55457;52.002;5.464;2024-03-08T10:57:51;101034.00;;;25.52;35.14
55187;BME280;55457;52.002;5.464;2024-03-08T11:00:18;101031.03;;;25.59;34.80
55187;BME280;55457;52.002;5.464;2024-03-08T11:02:51;101025.81;;;25.62;34.94
55187;BME280;55457;52.002;5.464;2024-03-08T11:05:39;101023.38;;;25.66;34.63
55187;BME280;55457;52.002;5.464;2024-03-08T11:08:18;101002.34;;;25.71;34.83
55187;BME280;55457;52.002;5.464;2024-03-08T11:10:50;101007.00;;;25.76;34.65
55187;BME280;55457;52.002;5.464;2024-03-08T11:13:35;100999.91;;;25.80;34.36
55187;BME280;55457;52.002;5.464;2024-03-08T11:16:02;101002.88;;;25.84;34.40
55187;BME280;55457;52.002;5.464;2024-03-08T11:18:33;100998.50;;;25.88;34.60
55187;BME280;55457;52.002;5.464;2024-03-08T11:21:02;100978.88;;;25.91;34.34
55187;BME280;55457;52.002;5.464;2024-03-08T11:23:30;100974.22;;;25.86;32.45
55187;BME280;55457;52.002;5.464;2024-03-08T11:25:56;100960.88;;;25.59;28.52
55187;BME280;55457;52.002;5.464;2024-03-08T11:28:25;100967.47;;;25.28;28.93
55187;BME280;55457;52.002;5.464;2024-03-08T11:33:24;100961.97;;;25.02;29.17
55187;BME280;55457;52.002;5.464;2024-03-08T11:35:50;100950.78;;;25.04;30.55
55187;BME280;55457;52.002;5.464;2024-03-08T11:38:16;100959.25;;;25.02;29.88
55187;BME280;55457;52.002;5.464;2024-03-08T11:40:42;100938.25;;;25.03;30.32
55187;BME280;55457;52.002;5.464;2024-03-08T11:43:08;100931.44;;;25.00;29.82
55187;BME280;55457;52.002;5.464;2024-03-08T11:45:36;100929.78;;;24.84;28.33
55187;BME280;55457;52.002;5.464;2024-03-08T11:48:03;100931.97;;;24.92;30.40
55187;BME280;55457;52.002;5.464;2024-03-08T11:50:31;100925.16;;;24.99;30.61
55187;BME280;55457;52.002;5.464;2024-03-08T11:53:02;100926.28;;;25.09;31.05
55187;BME280;55457;52.002;5.464;2024-03-08T11:55:28;100905.84;;;25.16;31.22
55187;BME280;55457;52.002;5.464;2024-03-08T11:58:04;100915.38;;;25.19;27.89
55187;BME280;55457;52.002;5.464;2024-03-08T12:00:30;100911.84;;;25.13;29.20
55187;BME280;55457;52.002;5.464;2024-03-08T12:03:04;100903.91;;;24.91;27.76
55187;BME280;55457;52.002;5.464;2024-03-08T12:05:31;100903.91;;;24.86;27.70
55187;BME280;55457;52.002;5.464;2024-03-08T12:07:58;100897.63;;;24.76;27.10
55187;BME280;55457;52.002;5.464;2024-03-08T12:10:24;100913.94;;;24.50;27.05
55187;BME280;55457;52.002;5.464;2024-03-08T12:12:52;100911.72;;;24.37;26.26
55187;BME280;55457;52.002;5.464;2024-03-08T12:15:19;100897.00;;;24.33;26.53
55187;BME280;55457;52.002;5.464;2024-03-08T12:17:47;100889.03;;;24.16;26.64
55187;BME280;55457;52.002;5.464;2024-03-08T12:20:33;100900.72;;;24.11;26.01
55187;BME280;55457;52.002;5.464;2024-03-08T12:22:59;100876.19;;;23.91;26.57
55187;BME280;55457;52.002;5.464;2024-03-08T12:25:30;100875.31;;;23.90;27.20
55187;BME280;55457;52.002;5.464;2024-03-08T12:27:56;100888.72;;;23.97;26.26
55187;BME280;55457;52.002;5.464;2024-03-08T12:30:26;100870.22;;;24.09;27.29
55187;BME280;55457;52.002;5.464;2024-03-08T12:32:58;100869.72;;;24.12;27.23
55187;BME280;55457;52.002;5.464;2024-03-08T12:35:25;100862.63;;;24.21;26.89
55187;BME280;55457;52.002;5.464;2024-03-08T12:37:55;100867.84;;;24.23;26.03
55187;BME280;55457;52.002;5.464;2024-03-08T12:40:31;100867.53;;;24.14;26.07
55187;BME280;55457;52.002;5.464;2024-03-08T12:42:58;100850.88;;;24.01;26.62
55187;BME280;55457;52.002;5.464;2024-03-08T12:45:24;100857.63;;;23.88;27.37
55187;BME280;55457;52.002;5.464;2024-03-08T12:47:51;100869.91;;;23.95;27.17
55187;BME280;55457;52.002;5.464;2024-03-08T12:50:16;100839.69;;;23.92;26.58
55187;BME280;55457;52.002;5.464;2024-03-08T12:52:42;100852.22;;;23.98;27.11
55187;BME280;55457;52.002;5.464;2024-03-08T12:55:07;100857.09;;;23.81;25.51
55187;BME280;55457;52.002;5.464;2024-03-08T12:57:35;100846.88;;;23.61;26.03